Jolyn — PJWG — position and weather

sailwx.info

Track history (hours):
 
Tides and Currents Weather Stations Pressure Air Temp Water Temp Dewpoint Dewpoint Depression Visibility Wind Speed Wind Dir Waves Ship Positions

Jolyn

Last reported at 2016-Jul-27 03:33 UTC. Time now 2016-Jul-27 03:44 UTC.
Position N 52°26' E 003°50'.

Length 89 m; draft 5.2 m.

Type: Cargo ship. MMSI: 306813000.

Date/timePositionNaut miles runAvg speedWind from/ knotsBaromVisibWave heightAir tempDewpointWater temp
2016-Jul-27 03:33N 52°26' E 003°50'9 8.5
2016-Jul-27 02:32N 52°19' E 003°41'8 8.2
2016-Jul-27 01:30N 52°12' E 003°34'8 8.0
2016-Jul-27 00:32N 52°06' E 003°27'8 8.1
2016-Jul-26 23:30N 51°57' E 003°24'8 8.2
2016-Jul-26 22:29N 51°50' E 003°19'7 7.5
2016-Jul-26 21:32N 51°43' E 003°17'1110.7
2016-Jul-26 20:33N 51°34' E 003°25'1010.5
2016-Jul-26 19:34N 51°26' E 003°37'4 3.7
2016-Jul-26 18:32N 51°27' E 003°43'0 0.0
2016-Jul-26 17:32N 51°27' E 003°43'0 0.0
2016-Jul-26 16:32N 51°27' E 003°43'0 0.0
2016-Jul-26 15:32N 51°27' E 003°43'0 0.0
2016-Jul-26 14:32N 51°27' E 003°43'0 0.0
2016-Jul-26 13:32N 51°27' E 003°43'0 0.0
2016-Jul-26 12:29N 51°27' E 003°43'0 0.0
2016-Jul-26 11:32N 51°27' E 003°43'0 0.0
2016-Jul-26 10:29N 51°27' E 003°43'0 0.0
2016-Jul-26 09:29N 51°27' E 003°43'0 0.0
2016-Jul-26 08:32N 51°27' E 003°43'0 0.0
2016-Jul-26 07:32N 51°27' E 003°43'0 0.0
2016-Jul-26 06:32N 51°27' E 003°43'0 0.0
2016-Jul-26 05:32N 51°27' E 003°43'0 0.0
2016-Jul-26 04:32N 51°27' E 003°43'0 0.0
2016-Jul-26 03:29N 51°27' E 003°43'0 0.0
2016-Jul-26 02:29N 51°27' E 003°43'0 0.0
2016-Jul-26 01:29N 51°27' E 003°43'0 0.0
2016-Jul-26 00:32N 51°27' E 003°43'0 0.0
2016-Jul-25 23:32N 51°27' E 003°43'0 0.0
2016-Jul-25 22:32N 51°27' E 003°43'3 2.8
2016-Jul-25 21:34N 51°24' E 003°43'6 6.2
2016-Jul-25 20:33N 51°20' E 003°49'1 0.9
2016-Jul-25 19:32N 51°19' E 003°50'0 0.0
2016-Jul-25 18:32N 51°19' E 003°50'0 0.0
2016-Jul-25 17:32N 51°19' E 003°50'0 0.0
2016-Jul-25 16:32N 51°19' E 003°50'0 0.0
2016-Jul-25 15:32N 51°19' E 003°50'0 0.0
2016-Jul-25 14:32N 51°19' E 003°50'0 0.0
2016-Jul-25 13:32N 51°19' E 003°50'0 0.0
2016-Jul-25 12:32N 51°19' E 003°50'0 0.0
2016-Jul-25 11:32N 51°19' E 003°50'0 0.0
2016-Jul-25 10:29N 51°19' E 003°50'0 0.0
2016-Jul-25 09:32N 51°19' E 003°50'0 0.0
2016-Jul-25 08:32N 51°19' E 003°50'0 0.0
2016-Jul-25 07:32N 51°19' E 003°50'0 0.0
2016-Jul-25 06:32N 51°19' E 003°50'0 0.0
2016-Jul-25 05:29N 51°19' E 003°50'0 0.0
2016-Jul-25 04:29N 51°19' E 003°50'0 0.0
2016-Jul-25 03:32N 51°19' E 003°50'0 0.0
2016-Jul-25 02:32N 51°19' E 003°50'0 0.0
2016-Jul-25 01:32N 51°19' E 003°50'0 0.0
2016-Jul-25 00:32N 51°19' E 003°50'0 0.0
2016-Jul-24 23:32N 51°19' E 003°50'0 0.0
2016-Jul-24 22:32N 51°19' E 003°50'0 0.0
2016-Jul-24 21:32N 51°19' E 003°50'0 0.0
2016-Jul-24 20:32N 51°19' E 003°50'0 0.0
2016-Jul-24 19:32N 51°19' E 003°50'0 0.0
2016-Jul-24 18:32N 51°19' E 003°50'0 0.0
2016-Jul-24 17:32N 51°19' E 003°50'0 0.0
2016-Jul-24 16:32N 51°19' E 003°50'0 0.0
2016-Jul-24 15:32N 51°19' E 003°50'0 0.0
2016-Jul-24 14:29N 51°19' E 003°50'0 0.0
2016-Jul-24 13:32N 51°19' E 003°50'0 0.0
2016-Jul-24 12:29N 51°19' E 003°50'0 0.0
2016-Jul-24 11:32N 51°19' E 003°50'0 0.0
2016-Jul-24 10:32N 51°19' E 003°50'0 0.0
2016-Jul-24 09:32N 51°19' E 003°50'0 0.0
2016-Jul-24 08:32N 51°19' E 003°50'0 0.0
2016-Jul-24 07:32N 51°19' E 003°50'0 0.0
2016-Jul-24 06:32N 51°19' E 003°50'0 0.0
2016-Jul-24 05:32N 51°19' E 003°50'0 0.0
2016-Jul-24 04:32N 51°19' E 003°50'0 0.0
2016-Jul-24 03:29N 51°19' E 003°50'0 0.0
2016-Jul-24 02:29N 51°19' E 003°50'0 0.0
2016-Jul-24 01:32N 51°19' E 003°50'0 0.0
2016-Jul-24 00:32N 51°19' E 003°50'0 0.0
2016-Jul-23 23:26N 51°19' E 003°50'1 0.7
2016-Jul-23 22:34N 51°19' E 003°49'3 3.0
2016-Jul-23 21:33N 51°22' E 003°46'8 8.2
2016-Jul-23 20:33N 51°26' E 003°35'9 9.1
2016-Jul-23 19:33N 51°33' E 003°25'10 9.6
2016-Jul-23 18:33N 51°41' E 003°17'7 6.7
2016-Jul-23 17:33N 51°47' E 003°12'9 9.0
2016-Jul-23 16:32N 51°54' E 003°02'9 9.0
2016-Jul-23 15:33N 52°02' E 002°56'12 8.6
2016-Jul-23 14:12N 52°11' E 002°45'910.4
2016-Jul-23 13:19N 52°18' E 002°36'1411.6
2016-Jul-23 12:04N 52°31' E 002°23'1912.5
2016-Jul-23 10:32N 52°47' E 002°06'1212.5
2016-Jul-23 09:33N 52°55' E 001°52'1313.1
2016-Jul-23 08:33N 53°03' E 001°34'1212.4
2016-Jul-23 07:33N 53°12' E 001°20'1212.0
2016-Jul-23 06:33N 53°22' E 001°08'2411.9
2016-Jul-23 04:33N 53°43' E 000°49'1111.3
2016-Jul-23 03:33N 53°52' E 000°38'1010.5
2016-Jul-23 02:33N 54°01' E 000°28'10 9.5
2016-Jul-23 01:33N 54°09' E 000°19'9 9.0
2016-Jul-23 00:33N 54°16' E 000°11'9 9.2
2016-Jul-22 23:33N 54°23' W 000°00'10 9.5
2016-Jul-22 22:33N 54°30' W 000°12'1010.1
2016-Jul-22 21:33N 54°37' W 000°24'1110.6
2016-Jul-22 20:31N 54°44' W 000°39'1010.8
2016-Jul-22 19:33N 54°50' W 000°53'1111.1
2016-Jul-22 18:33N 54°57' W 001°08'1111.5
2016-Jul-22 17:33N 55°04' W 001°23'6 5.8
2016-Jul-22 16:33N 55°08' W 001°31'0 0.0
2016-Jul-22 15:33N 55°08' W 001°31'0 0.0
2016-Jul-22 14:31N 55°08' W 001°31'0 0.0
2016-Jul-22 13:31N 55°08' W 001°31'0 0.0
2016-Jul-22 12:31N 55°08' W 001°31'0 0.0
2016-Jul-22 11:31N 55°08' W 001°31'0 0.0
2016-Jul-22 10:31N 55°08' W 001°31'0 0.0
2016-Jul-22 09:31N 55°08' W 001°31'0 0.0
2016-Jul-22 08:31N 55°08' W 001°31'0 0.0
2016-Jul-22 07:31N 55°08' W 001°31'0 0.0
2016-Jul-22 04:31N 55°08' W 001°31'0 0.0
2016-Jul-22 03:31N 55°08' W 001°31'0 0.0
2016-Jul-22 02:31N 55°08' W 001°31'0 0.0
2016-Jul-22 01:31N 55°08' W 001°31'0 0.0
2016-Jul-22 00:31N 55°08' W 001°31'0 0.0
2016-Jul-21 23:31N 55°08' W 001°31'0 0.0
2016-Jul-21 22:31N 55°08' W 001°31'0 0.0
2016-Jul-21 21:31N 55°08' W 001°31'0 0.0
2016-Jul-21 20:31N 55°08' W 001°31'0 0.0
2016-Jul-21 19:31N 55°08' W 001°31'0 0.0
2016-Jul-21 18:31N 55°08' W 001°31'0 0.0
2016-Jul-21 17:31N 55°08' W 001°31'0 0.0
2016-Jul-21 16:28N 55°08' W 001°31'0 0.0
2016-Jul-21 15:31N 55°08' W 001°31'0 0.0
2016-Jul-21 14:31N 55°08' W 001°31'0 0.0
2016-Jul-21 13:31N 55°08' W 001°31'0 0.0
2016-Jul-21 12:31N 55°08' W 001°31'0 0.0
2016-Jul-21 11:31N 55°08' W 001°31'0 0.0
2016-Jul-21 10:31N 55°08' W 001°31'0 0.0
2016-Jul-21 09:31N 55°08' W 001°31'0 0.0
2016-Jul-21 08:31N 55°08' W 001°31'0 0.0
2016-Jul-21 07:31N 55°08' W 001°31'0 0.0
2016-Jul-21 06:31N 55°08' W 001°31'0 0.0
2016-Jul-21 05:31N 55°08' W 001°31'0 0.0
2016-Jul-21 04:31N 55°08' W 001°31'0 0.0
2016-Jul-21 03:31N 55°08' W 001°31'0 0.0
2016-Jul-21 02:31N 55°08' W 001°31'0 0.0
2016-Jul-21 01:31N 55°08' W 001°31'0 0.0
2016-Jul-21 00:31N 55°08' W 001°31'0 0.0
2016-Jul-20 23:31N 55°08' W 001°31'0 0.0
2016-Jul-20 22:31N 55°08' W 001°31'0 0.0
2016-Jul-20 21:31N 55°08' W 001°31'0 0.0
2016-Jul-20 20:31N 55°08' W 001°31'0 0.0
2016-Jul-20 19:31N 55°08' W 001°31'0 0.0
2016-Jul-20 18:31N 55°08' W 001°31'0 0.0
2016-Jul-20 17:31N 55°08' W 001°31'0 0.0
2016-Jul-20 16:31N 55°08' W 001°31'0 0.0
2016-Jul-20 15:31N 55°08' W 001°31'0 0.0
2016-Jul-20 14:31N 55°08' W 001°31'0 0.0
2016-Jul-20 13:31N 55°08' W 001°31'0 0.0
2016-Jul-20 12:28N 55°08' W 001°31'0 0.3
2016-Jul-20 11:31N 55°08' W 001°31'0 0.0
2016-Jul-20 10:31N 55°08' W 001°31'0 0.0
2016-Jul-20 09:25N 55°08' W 001°31'0 0.0
2016-Jul-20 08:28N 55°08' W 001°31'0 0.0
2016-Jul-20 07:28N 55°08' W 001°31'0 0.0
2016-Jul-20 06:31N 55°08' W 001°31'0 0.0
2016-Jul-20 05:31N 55°08' W 001°31'0 0.0
2016-Jul-20 04:31N 55°08' W 001°31'0 0.0
2016-Jul-20 03:31N 55°08' W 001°31'0 0.0
2016-Jul-20 02:31N 55°08' W 001°31'0 0.0
2016-Jul-20 01:31N 55°08' W 001°31'0 0.0
2016-Jul-20 00:31N 55°08' W 001°31'0 0.0
2016-Jul-19 23:31N 55°08' W 001°31'0 0.0
2016-Jul-19 22:31N 55°08' W 001°31'0 0.0
2016-Jul-19 21:31N 55°08' W 001°31'0 0.0
2016-Jul-19 20:31N 55°08' W 001°31'0 0.0
2016-Jul-19 19:31N 55°08' W 001°31'0 0.0
2016-Jul-19 18:31N 55°08' W 001°31'0 0.0
2016-Jul-19 17:31N 55°08' W 001°31'0 0.0
2016-Jul-19 16:28N 55°08' W 001°31'0 0.0
2016-Jul-19 15:31N 55°08' W 001°31'0 0.0
2016-Jul-19 14:31N 55°08' W 001°31'0 0.0
2016-Jul-19 13:31N 55°08' W 001°31'0 0.0
2016-Jul-19 12:31N 55°08' W 001°31'0 0.0
2016-Jul-19 11:31N 55°08' W 001°31'0 0.0
2016-Jul-19 10:31N 55°08' W 001°31'0 0.0
2016-Jul-19 09:31N 55°08' W 001°31'0 0.0
2016-Jul-19 08:31N 55°08' W 001°31'0 0.0
2016-Jul-19 07:31N 55°08' W 001°31'0 0.0
2016-Jul-19 04:31N 55°08' W 001°31'0 0.0
2016-Jul-19 03:31N 55°08' W 001°31'0 0.0
2016-Jul-19 02:31N 55°08' W 001°31'0 0.0
2016-Jul-19 01:31N 55°08' W 001°31'0 0.0
2016-Jul-19 00:31N 55°08' W 001°31'0 0.0
2016-Jul-18 23:31N 55°08' W 001°31'0 0.0
2016-Jul-18 22:31N 55°08' W 001°31'0 0.0
2016-Jul-18 21:31N 55°08' W 001°31'0 0.0
2016-Jul-18 20:31N 55°08' W 001°31'0 0.0
2016-Jul-18 19:31N 55°08' W 001°31'0 0.0
2016-Jul-18 18:31N 55°08' W 001°31'0 0.0
2016-Jul-18 17:31N 55°08' W 001°31'0 0.0
2016-Jul-18 16:31N 55°08' W 001°31'0 0.0
2016-Jul-18 15:31N 55°08' W 001°31'0 0.0
2016-Jul-18 14:31N 55°08' W 001°31'0 0.0
2016-Jul-18 13:31N 55°08' W 001°31'0 0.0
2016-Jul-18 12:31N 55°08' W 001°31'0 0.0
2016-Jul-18 11:31N 55°08' W 001°31'0 0.0
2016-Jul-18 10:31N 55°08' W 001°31'0 0.0
2016-Jul-18 09:31N 55°08' W 001°31'0 0.0
2016-Jul-18 08:31N 55°08' W 001°31'0 0.0
2016-Jul-18 07:31N 55°08' W 001°31'0 0.0
2016-Jul-18 06:31N 55°08' W 001°31'0 0.0
2016-Jul-18 05:31N 55°08' W 001°31'0 0.0
2016-Jul-18 04:31N 55°08' W 001°31'0 0.0
2016-Jul-18 03:31N 55°08' W 001°31'0 0.0
2016-Jul-18 02:31N 55°08' W 001°31'0 0.0
2016-Jul-18 01:31N 55°08' W 001°31'0 0.0
2016-Jul-18 00:31N 55°08' W 001°31'0 0.0
2016-Jul-17 23:31N 55°08' W 001°31'0 0.0
2016-Jul-17 22:31N 55°08' W 001°31'0 0.0
2016-Jul-17 21:28N 55°08' W 001°31'0 0.0
2016-Jul-17 20:28N 55°08' W 001°31'0 0.0
2016-Jul-17 19:31N 55°08' W 001°31'0 0.0
2016-Jul-17 18:31N 55°08' W 001°31'0 0.0
2016-Jul-17 17:31N 55°08' W 001°31'0 0.0
2016-Jul-17 16:31N 55°08' W 001°31'0 0.0
2016-Jul-17 15:31N 55°08' W 001°31'0 0.0
2016-Jul-17 14:31N 55°08' W 001°31'0 0.0
2016-Jul-17 13:31N 55°08' W 001°31'0 0.0
2016-Jul-17 12:31N 55°08' W 001°31'0 0.0
2016-Jul-17 11:31N 55°08' W 001°31'0 0.0
2016-Jul-17 10:31N 55°08' W 001°31'0 0.0
2016-Jul-17 09:31N 55°08' W 001°31'0 0.0
2016-Jul-17 08:31N 55°08' W 001°31'0 0.0
2016-Jul-17 07:31N 55°08' W 001°31'0 0.0
2016-Jul-17 06:31N 55°08' W 001°31'0 0.0
2016-Jul-17 04:31N 55°08' W 001°31'  
Track history (hours):
 
Tides and Currents Weather Stations Pressure Air Temp Water Temp Dewpoint Dewpoint Depression Visibility Wind Speed Wind Dir Waves Ship Positions

Jolyn

Last reported at 2016-Jul-27 03:33 UTC. Time now 2016-Jul-27 03:44 UTC.
Position N 52°26' E 003°50'.

Length 89 m; draft 5.2 m.

Type: Cargo ship. MMSI: 306813000.

Date/timePositionNaut miles runAvg speedWind from/ knotsBaromVisibWave heightAir tempDewpointWater temp
2016-Jul-27 03:33N 52°26' E 003°50'9 8.5
2016-Jul-27 02:32N 52°19' E 003°41'8 8.2
2016-Jul-27 01:30N 52°12' E 003°34'8 8.0
2016-Jul-27 00:32N 52°06' E 003°27'8 8.1
2016-Jul-26 23:30N 51°57' E 003°24'8 8.2
2016-Jul-26 22:29N 51°50' E 003°19'7 7.5
2016-Jul-26 21:32N 51°43' E 003°17'1110.7
2016-Jul-26 20:33N 51°34' E 003°25'1010.5
2016-Jul-26 19:34N 51°26' E 003°37'4 3.7
2016-Jul-26 18:32N 51°27' E 003°43'0 0.0
2016-Jul-26 17:32N 51°27' E 003°43'0 0.0
2016-Jul-26 16:32N 51°27' E 003°43'0 0.0
2016-Jul-26 15:32N 51°27' E 003°43'0 0.0
2016-Jul-26 14:32N 51°27' E 003°43'0 0.0
2016-Jul-26 13:32N 51°27' E 003°43'0 0.0
2016-Jul-26 12:29N 51°27' E 003°43'0 0.0
2016-Jul-26 11:32N 51°27' E 003°43'0 0.0
2016-Jul-26 10:29N 51°27' E 003°43'0 0.0
2016-Jul-26 09:29N 51°27' E 003°43'0 0.0
2016-Jul-26 08:32N 51°27' E 003°43'0 0.0
2016-Jul-26 07:32N 51°27' E 003°43'0 0.0
2016-Jul-26 06:32N 51°27' E 003°43'0 0.0
2016-Jul-26 05:32N 51°27' E 003°43'0 0.0
2016-Jul-26 04:32N 51°27' E 003°43'0 0.0
2016-Jul-26 03:29N 51°27' E 003°43'0 0.0
2016-Jul-26 02:29N 51°27' E 003°43'0 0.0
2016-Jul-26 01:29N 51°27' E 003°43'0 0.0
2016-Jul-26 00:32N 51°27' E 003°43'0 0.0
2016-Jul-25 23:32N 51°27' E 003°43'0 0.0
2016-Jul-25 22:32N 51°27' E 003°43'3 2.8
2016-Jul-25 21:34N 51°24' E 003°43'6 6.2
2016-Jul-25 20:33N 51°20' E 003°49'1 0.9
2016-Jul-25 19:32N 51°19' E 003°50'0 0.0
2016-Jul-25 18:32N 51°19' E 003°50'0 0.0
2016-Jul-25 17:32N 51°19' E 003°50'0 0.0
2016-Jul-25 16:32N 51°19' E 003°50'0 0.0
2016-Jul-25 15:32N 51°19' E 003°50'0 0.0
2016-Jul-25 14:32N 51°19' E 003°50'0 0.0
2016-Jul-25 13:32N 51°19' E 003°50'0 0.0
2016-Jul-25 12:32N 51°19' E 003°50'0 0.0
2016-Jul-25 11:32N 51°19' E 003°50'0 0.0
2016-Jul-25 10:29N 51°19' E 003°50'0 0.0
2016-Jul-25 09:32N 51°19' E 003°50'0 0.0
2016-Jul-25 08:32N 51°19' E 003°50'0 0.0
2016-Jul-25 07:32N 51°19' E 003°50'0 0.0
2016-Jul-25 06:32N 51°19' E 003°50'0 0.0
2016-Jul-25 05:29N 51°19' E 003°50'0 0.0
2016-Jul-25 04:29N 51°19' E 003°50'0 0.0
2016-Jul-25 03:32N 51°19' E 003°50'0 0.0
2016-Jul-25 02:32N 51°19' E 003°50'0 0.0
2016-Jul-25 01:32N 51°19' E 003°50'0 0.0
2016-Jul-25 00:32N 51°19' E 003°50'0 0.0
2016-Jul-24 23:32N 51°19' E 003°50'0 0.0
2016-Jul-24 22:32N 51°19' E 003°50'0 0.0
2016-Jul-24 21:32N 51°19' E 003°50'0 0.0
2016-Jul-24 20:32N 51°19' E 003°50'0 0.0
2016-Jul-24 19:32N 51°19' E 003°50'0 0.0
2016-Jul-24 18:32N 51°19' E 003°50'0 0.0
2016-Jul-24 17:32N 51°19' E 003°50'0 0.0
2016-Jul-24 16:32N 51°19' E 003°50'0 0.0
2016-Jul-24 15:32N 51°19' E 003°50'0 0.0
2016-Jul-24 14:29N 51°19' E 003°50'0 0.0
2016-Jul-24 13:32N 51°19' E 003°50'0 0.0
2016-Jul-24 12:29N 51°19' E 003°50'0 0.0
2016-Jul-24 11:32N 51°19' E 003°50'0 0.0
2016-Jul-24 10:32N 51°19' E 003°50'0 0.0
2016-Jul-24 09:32N 51°19' E 003°50'0 0.0
2016-Jul-24 08:32N 51°19' E 003°50'0 0.0
2016-Jul-24 07:32N 51°19' E 003°50'0 0.0
2016-Jul-24 06:32N 51°19' E 003°50'0 0.0
2016-Jul-24 05:32N 51°19' E 003°50'0 0.0
2016-Jul-24 04:32N 51°19' E 003°50'0 0.0
2016-Jul-24 03:29N 51°19' E 003°50'0 0.0
2016-Jul-24 02:29N 51°19' E 003°50'0 0.0
2016-Jul-24 01:32N 51°19' E 003°50'0 0.0
2016-Jul-24 00:32N 51°19' E 003°50'0 0.0
2016-Jul-23 23:26N 51°19' E 003°50'1 0.7
2016-Jul-23 22:34N 51°19' E 003°49'3 3.0
2016-Jul-23 21:33N 51°22' E 003°46'8 8.2
2016-Jul-23 20:33N 51°26' E 003°35'9 9.1
2016-Jul-23 19:33N 51°33' E 003°25'10 9.6
2016-Jul-23 18:33N 51°41' E 003°17'7 6.7
2016-Jul-23 17:33N 51°47' E 003°12'9 9.0
2016-Jul-23 16:32N 51°54' E 003°02'9 9.0
2016-Jul-23 15:33N 52°02' E 002°56'12 8.6
2016-Jul-23 14:12N 52°11' E 002°45'910.4
2016-Jul-23 13:19N 52°18' E 002°36'1411.6
2016-Jul-23 12:04N 52°31' E 002°23'1912.5
2016-Jul-23 10:32N 52°47' E 002°06'1212.5
2016-Jul-23 09:33N 52°55' E 001°52'1313.1
2016-Jul-23 08:33N 53°03' E 001°34'1212.4
2016-Jul-23 07:33N 53°12' E 001°20'1212.0
2016-Jul-23 06:33N 53°22' E 001°08'2411.9
2016-Jul-23 04:33N 53°43' E 000°49'1111.3
2016-Jul-23 03:33N 53°52' E 000°38'1010.5
2016-Jul-23 02:33N 54°01' E 000°28'10 9.5
2016-Jul-23 01:33N 54°09' E 000°19'9 9.0
2016-Jul-23 00:33N 54°16' E 000°11'9 9.2
2016-Jul-22 23:33N 54°23' W 000°00'10 9.5
2016-Jul-22 22:33N 54°30' W 000°12'1010.1
2016-Jul-22 21:33N 54°37' W 000°24'1110.6
2016-Jul-22 20:31N 54°44' W 000°39'1010.8
2016-Jul-22 19:33N 54°50' W 000°53'1111.1
2016-Jul-22 18:33N 54°57' W 001°08'1111.5
2016-Jul-22 17:33N 55°04' W 001°23'6 5.8
2016-Jul-22 16:33N 55°08' W 001°31'0 0.0
2016-Jul-22 15:33N 55°08' W 001°31'0 0.0
2016-Jul-22 14:31N 55°08' W 001°31'0 0.0
2016-Jul-22 13:31N 55°08' W 001°31'0 0.0
2016-Jul-22 12:31N 55°08' W 001°31'0 0.0
2016-Jul-22 11:31N 55°08' W 001°31'0 0.0
2016-Jul-22 10:31N 55°08' W 001°31'0 0.0
2016-Jul-22 09:31N 55°08' W 001°31'0 0.0
2016-Jul-22 08:31N 55°08' W 001°31'0 0.0
2016-Jul-22 07:31N 55°08' W 001°31'0 0.0
2016-Jul-22 04:31N 55°08' W 001°31'0 0.0
2016-Jul-22 03:31N 55°08' W 001°31'0 0.0
2016-Jul-22 02:31N 55°08' W 001°31'0 0.0
2016-Jul-22 01:31N 55°08' W 001°31'0 0.0
2016-Jul-22 00:31N 55°08' W 001°31'0 0.0
2016-Jul-21 23:31N 55°08' W 001°31'0 0.0
2016-Jul-21 22:31N 55°08' W 001°31'0 0.0
2016-Jul-21 21:31N 55°08' W 001°31'0 0.0
2016-Jul-21 20:31N 55°08' W 001°31'0 0.0
2016-Jul-21 19:31N 55°08' W 001°31'0 0.0
2016-Jul-21 18:31N 55°08' W 001°31'0 0.0
2016-Jul-21 17:31N 55°08' W 001°31'0 0.0
2016-Jul-21 16:28N 55°08' W 001°31'0 0.0
2016-Jul-21 15:31N 55°08' W 001°31'0 0.0
2016-Jul-21 14:31N 55°08' W 001°31'0 0.0
2016-Jul-21 13:31N 55°08' W 001°31'0 0.0
2016-Jul-21 12:31N 55°08' W 001°31'0 0.0
2016-Jul-21 11:31N 55°08' W 001°31'0 0.0
2016-Jul-21 10:31N 55°08' W 001°31'0 0.0
2016-Jul-21 09:31N 55°08' W 001°31'0 0.0
2016-Jul-21 08:31N 55°08' W 001°31'0 0.0
2016-Jul-21 07:31N 55°08' W 001°31'0 0.0
2016-Jul-21 06:31N 55°08' W 001°31'0 0.0
2016-Jul-21 05:31N 55°08' W 001°31'0 0.0
2016-Jul-21 04:31N 55°08' W 001°31'0 0.0
2016-Jul-21 03:31N 55°08' W 001°31'0 0.0
2016-Jul-21 02:31N 55°08' W 001°31'0 0.0
2016-Jul-21 01:31N 55°08' W 001°31'0 0.0
2016-Jul-21 00:31N 55°08' W 001°31'0 0.0
2016-Jul-20 23:31N 55°08' W 001°31'0 0.0
2016-Jul-20 22:31N 55°08' W 001°31'0 0.0
2016-Jul-20 21:31N 55°08' W 001°31'0 0.0
2016-Jul-20 20:31N 55°08' W 001°31'0 0.0
2016-Jul-20 19:31N 55°08' W 001°31'0 0.0
2016-Jul-20 18:31N 55°08' W 001°31'0 0.0
2016-Jul-20 17:31N 55°08' W 001°31'0 0.0
2016-Jul-20 16:31N 55°08' W 001°31'0 0.0
2016-Jul-20 15:31N 55°08' W 001°31'0 0.0
2016-Jul-20 14:31N 55°08' W 001°31'0 0.0
2016-Jul-20 13:31N 55°08' W 001°31'0 0.0
2016-Jul-20 12:28N 55°08' W 001°31'0 0.3
2016-Jul-20 11:31N 55°08' W 001°31'0 0.0
2016-Jul-20 10:31N 55°08' W 001°31'0 0.0
2016-Jul-20 09:25N 55°08' W 001°31'0 0.0
2016-Jul-20 08:28N 55°08' W 001°31'0 0.0
2016-Jul-20 07:28N 55°08' W 001°31'0 0.0
2016-Jul-20 06:31N 55°08' W 001°31'0 0.0
2016-Jul-20 05:31N 55°08' W 001°31'0 0.0
2016-Jul-20 04:31N 55°08' W 001°31'0 0.0
2016-Jul-20 03:31N 55°08' W 001°31'0 0.0
2016-Jul-20 02:31N 55°08' W 001°31'0 0.0
2016-Jul-20 01:31N 55°08' W 001°31'0 0.0
2016-Jul-20 00:31N 55°08' W 001°31'0 0.0
2016-Jul-19 23:31N 55°08' W 001°31'0 0.0
2016-Jul-19 22:31N 55°08' W 001°31'0 0.0
2016-Jul-19 21:31N 55°08' W 001°31'0 0.0
2016-Jul-19 20:31N 55°08' W 001°31'0 0.0
2016-Jul-19 19:31N 55°08' W 001°31'0 0.0
2016-Jul-19 18:31N 55°08' W 001°31'0 0.0
2016-Jul-19 17:31N 55°08' W 001°31'0 0.0
2016-Jul-19 16:28N 55°08' W 001°31'0 0.0
2016-Jul-19 15:31N 55°08' W 001°31'0 0.0
2016-Jul-19 14:31N 55°08' W 001°31'0 0.0
2016-Jul-19 13:31N 55°08' W 001°31'0 0.0
2016-Jul-19 12:31N 55°08' W 001°31'0 0.0
2016-Jul-19 11:31N 55°08' W 001°31'0 0.0
2016-Jul-19 10:31N 55°08' W 001°31'0 0.0
2016-Jul-19 09:31N 55°08' W 001°31'0 0.0
2016-Jul-19 08:31N 55°08' W 001°31'0 0.0
2016-Jul-19 07:31N 55°08' W 001°31'0 0.0
2016-Jul-19 04:31N 55°08' W 001°31'0 0.0
2016-Jul-19 03:31N 55°08' W 001°31'0 0.0
2016-Jul-19 02:31N 55°08' W 001°31'0 0.0
2016-Jul-19 01:31N 55°08' W 001°31'0 0.0
2016-Jul-19 00:31N 55°08' W 001°31'0 0.0
2016-Jul-18 23:31N 55°08' W 001°31'0 0.0
2016-Jul-18 22:31N 55°08' W 001°31'0 0.0
2016-Jul-18 21:31N 55°08' W 001°31'0 0.0
2016-Jul-18 20:31N 55°08' W 001°31'0 0.0
2016-Jul-18 19:31N 55°08' W 001°31'0 0.0
2016-Jul-18 18:31N 55°08' W 001°31'0 0.0
2016-Jul-18 17:31N 55°08' W 001°31'0 0.0
2016-Jul-18 16:31N 55°08' W 001°31'0 0.0
2016-Jul-18 15:31N 55°08' W 001°31'0 0.0
2016-Jul-18 14:31N 55°08' W 001°31'0 0.0
2016-Jul-18 13:31N 55°08' W 001°31'0 0.0
2016-Jul-18 12:31N 55°08' W 001°31'0 0.0
2016-Jul-18 11:31N 55°08' W 001°31'0 0.0
2016-Jul-18 10:31N 55°08' W 001°31'0 0.0
2016-Jul-18 09:31N 55°08' W 001°31'0 0.0
2016-Jul-18 08:31N 55°08' W 001°31'0 0.0
2016-Jul-18 07:31N 55°08' W 001°31'0 0.0
2016-Jul-18 06:31N 55°08' W 001°31'0 0.0
2016-Jul-18 05:31N 55°08' W 001°31'0 0.0
2016-Jul-18 04:31N 55°08' W 001°31'0 0.0
2016-Jul-18 03:31N 55°08' W 001°31'0 0.0
2016-Jul-18 02:31N 55°08' W 001°31'0 0.0
2016-Jul-18 01:31N 55°08' W 001°31'0 0.0
2016-Jul-18 00:31N 55°08' W 001°31'0 0.0
2016-Jul-17 23:31N 55°08' W 001°31'0 0.0
2016-Jul-17 22:31N 55°08' W 001°31'0 0.0
2016-Jul-17 21:28N 55°08' W 001°31'0 0.0
2016-Jul-17 20:28N 55°08' W 001°31'0 0.0
2016-Jul-17 19:31N 55°08' W 001°31'0 0.0
2016-Jul-17 18:31N 55°08' W 001°31'0 0.0
2016-Jul-17 17:31N 55°08' W 001°31'0 0.0
2016-Jul-17 16:31N 55°08' W 001°31'0 0.0
2016-Jul-17 15:31N 55°08' W 001°31'0 0.0
2016-Jul-17 14:31N 55°08' W 001°31'0 0.0
2016-Jul-17 13:31N 55°08' W 001°31'0 0.0
2016-Jul-17 12:31N 55°08' W 001°31'0 0.0
2016-Jul-17 11:31N 55°08' W 001°31'0 0.0
2016-Jul-17 10:31N 55°08' W 001°31'0 0.0
2016-Jul-17 09:31N 55°08' W 001°31'0 0.0
2016-Jul-17 08:31N 55°08' W 001°31'0 0.0
2016-Jul-17 07:31N 55°08' W 001°31'0 0.0
2016-Jul-17 06:31N 55°08' W 001°31'0 0.0
2016-Jul-17 04:31N 55°08' W 001°31'  

Dump ship's entire track history